Time;durP1;ratioP1;P1;durP2;ratioP2;P2;SDS_P1;SDS_P2;PMS_P1;PMS_P2;Temp;Humidity;BMP_temperature;BMP_pressure;BME280_temperature;BME280_humidity;BME280_pressure;Samples;Min_cycle;Max_cycle;Signal;HPM_P1;HPM_P2
2022/10/30 00:00:11;;;;;;;8.90;4.13;;;;;;;19.97;60.16;101614.06;5043681;28;20591;-64
2022/10/30 00:02:36;;;;;;;6.50;3.97;;;;;;;19.95;59.88;101610.69;5033073;28;20297;-64
2022/10/30 00:05:02;;;;;;;8.47;4.40;;;;;;;19.94;59.86;101609.84;5038994;28;20091;-64
2022/10/30 00:07:27;;;;;;;10.82;5.05;;;;;;;20.00;59.69;101628.88;5043164;28;20432;-64
2022/10/30 00:09:53;;;;;;;8.23;4.03;;;;;;;19.91;59.64;101611.88;5028992;28;20033;-64
2022/10/30 00:12:18;;;;;;;6.78;4.25;;;;;;;19.92;59.94;101616.22;5030492;28;20266;-65
2022/10/30 00:14:43;;;;;;;8.73;4.27;;;;;;;19.97;60.20;101626.47;5026735;28;20037;-65
2022/10/30 00:17:08;;;;;;;10.97;4.70;;;;;;;19.90;60.17;101613.69;5037944;28;20274;-65
2022/10/30 00:19:34;;;;;;;7.88;4.28;;;;;;;19.91;59.73;101611.88;5036365;28;20267;-64
2022/10/30 00:22:01;;;;;;;8.50;4.10;;;;;;;19.90;59.99;101610.19;5023227;28;20053;-64
2022/10/30 00:24:27;;;;;;;7.55;3.78;;;;;;;19.90;59.82;101610.19;5033573;28;20254;-64
2022/10/30 00:26:52;;;;;;;6.68;3.95;;;;;;;19.95;59.79;101621.28;5035541;28;20017;-64
2022/10/30 00:29:18;;;;;;;10.63;4.40;;;;;;;19.89;59.70;101608.53;5023223;28;20145;-65
2022/10/30 00:31:43;;;;;;;7.70;4.38;;;;;;;19.88;59.80;101607.66;5027300;28;20473;-65
2022/10/30 00:34:08;;;;;;;8.00;4.50;;;;;;;19.87;59.40;101611.28;5032190;28;20059;-64
2022/10/30 00:36:33;;;;;;;7.25;4.40;;;;;;;19.86;59.83;101606.94;5027430;28;20763;-64
2022/10/30 00:38:59;;;;;;;7.70;4.03;;;;;;;19.86;59.56;101601.66;5033858;28;20095;-65
2022/10/30 00:41:24;;;;;;;8.27;4.37;;;;;;;19.90;59.63;101607.53;5037981;28;20282;-65
2022/10/30 00:43:50;;;;;;;8.00;4.40;;;;;;;19.89;59.61;101609.34;5023308;28;20281;-64
2022/10/30 00:46:18;;;;;;;9.60;4.65;;;;;;;19.92;59.46;101617.06;5022684;28;20087;-65
2022/10/30 00:48:49;;;;;;;8.63;4.50;;;;;;;19.89;59.65;101605.88;5022673;28;20076;-65
2022/10/30 00:51:16;;;;;;;8.20;4.40;;;;;;;19.84;59.51;101598.28;5022950;28;20041;-64
2022/10/30 00:53:42;;;;;;;6.95;4.10;;;;;;;19.90;59.53;101619.00;5022623;28;20103;-64
2022/10/30 00:56:10;;;;;;;7.50;4.57;;;;;;;19.82;59.22;101594.06;5034527;28;20036;-64
2022/10/30 00:58:41;;;;;;;7.10;4.28;;;;;;;19.84;59.26;101605.41;5022833;28;20037;-64
2022/10/30 01:01:10;;;;;;;7.68;4.45;;;;;;;19.87;59.15;101610.47;5029099;28;20037;-65
2022/10/30 01:03:38;;;;;;;6.65;3.83;;;;;;;19.88;59.46;101609.47;5023026;28;20033;-64
2022/10/30 01:06:06;;;;;;;7.68;4.40;;;;;;;19.88;59.63;101604.19;5035533;28;20040;-64
2022/10/30 01:08:32;;;;;;;8.27;4.95;;;;;;;19.88;59.26;101606.81;5042034;28;20491;-64
2022/10/30 01:11:01;;;;;;;9.10;4.30;;;;;;;19.86;59.19;101609.59;5031424;28;20025;-64
2022/10/30 01:13:27;;;;;;;8.38;4.43;;;;;;;19.86;59.03;101620.16;5037154;28;20083;-64
2022/10/30 01:16:20;;;;;;;8.10;4.18;;;;;;;19.84;59.34;101614.16;5033381;28;20025;-64
2022/10/30 01:19:02;;;;;;;8.75;4.43;;;;;;;19.81;58.96;101608.28;5025151;28;20052;-64
2022/10/30 01:21:50;;;;;;;8.93;4.03;;;;;;;19.86;59.29;101621.97;5022392;28;20045;-65
2022/10/30 01:24:32;;;;;;;10.02;4.22;;;;;;;19.84;59.13;101619.47;5022418;28;20037;-64
2022/10/30 01:27:03;;;;;;;8.15;4.10;;;;;;;19.84;58.94;101614.16;5021986;28;20040;-64
2022/10/30 01:29:55;;;;;;;9.55;4.38;;;;;;;19.81;59.06;101616.22;5037007;28;20033;-65
2022/10/30 01:32:40;;;;;;;8.18;4.40;;;;;;;19.78;59.15;101606.69;5034200;28;20029;-64
2022/10/30 01:35:29;;;;;;;7.75;4.10;;;;;;;19.82;59.09;101620.53;5033519;28;20539;-64
2022/10/30 01:38:15;;;;;;;9.50;5.53;;;;;;;19.82;58.82;101624.03;5034682;28;20029;-64
2022/10/30 01:40:43;;;;;;;7.65;3.90;;;;;;;19.81;59.01;101621.50;5022247;28;20045;-64
2022/10/30 01:43:08;;;;;;;7.20;4.22;;;;;;;19.73;58.63;101614.94;5036217;28;20032;-65
2022/10/30 01:45:52;;;;;;;7.23;4.60;;;;;;;19.80;59.13;101625.94;5028102;28;20421;-64
2022/10/30 01:48:46;;;;;;;7.68;4.78;;;;;;;19.80;58.89;101620.63;5033677;28;20293;-64
2022/10/30 01:51:35;;;;;;;7.05;4.03;;;;;;;19.80;59.06;101625.94;5036847;28;20033;-64
2022/10/30 01:54:13;;;;;;;8.73;4.47;;;;;;;19.80;59.06;101627.75;5024614;28;20036;-63
2022/10/30 01:57:20;;;;;;;9.10;4.13;;;;;;;19.74;58.74;101629.00;5029417;28;20047;-65
2022/10/30 02:00:01;;;;;;;8.38;4.53;;;;;;;19.75;58.94;101628.88;5004229;28;20052;-65
2022/10/30 02:02:26;;;;;;;7.88;4.50;;;;;;;19.70;58.76;101625.75;5021639;28;20080;-65
2022/10/30 02:04:52;;;;;;;7.25;4.35;;;;;;;19.70;58.88;101623.09;5028169;28;20351;-64
2022/10/30 02:07:17;;;;;;;8.25;4.38;;;;;;;19.74;58.88;101637.81;5021500;28;20115;-65
2022/10/30 02:09:43;;;;;;;9.57;4.70;;;;;;;19.70;58.57;101630.22;5021707;28;20033;-64
2022/10/30 02:12:08;;;;;;;8.40;4.47;;;;;;;19.75;58.65;101642.09;5025672;28;20028;-65
2022/10/30 02:14:42;;;;;;;7.80;3.95;;;;;;;19.72;58.77;101630.94;5034038;28;20116;-65
2022/10/30 02:17:08;;;;;;;7.13;4.43;;;;;;;19.68;58.85;101622.38;5030722;28;20531;-65
2022/10/30 02:19:34;;;;;;;6.95;3.97;;;;;;;19.68;58.54;101622.38;5021249;28;20037;-65
2022/10/30 02:21:59;;;;;;;8.52;4.78;;;;;;;19.67;58.54;101625.16;5023821;28;20053;-65
2022/10/30 02:24:24;;;;;;;7.35;4.45;;;;;;;19.75;58.81;101641.28;5021486;28;21164;-65
2022/10/30 02:26:50;;;;;;;7.63;4.35;;;;;;;19.69;58.57;101636.44;5034829;28;20051;-65
2022/10/30 02:29:19;;;;;;;8.43;4.30;;;;;;;19.73;58.68;101649.31;5040930;28;20033;-65
2022/10/30 02:31:44;;;;;;;11.20;4.20;;;;;;;19.73;58.61;101645.84;5037276;28;20034;-65
2022/10/30 02:34:10;;;;;;;8.52;4.18;;;;;;;19.73;58.62;101644.03;5020910;28;20045;-65
2022/10/30 02:36:35;;;;;;;6.70;4.10;;;;;;;19.66;58.65;101634.03;5025589;28;20151;-64
2022/10/30 02:39:00;;;;;;;6.95;4.10;;;;;;;19.73;58.76;101648.50;5021325;28;20281;-64
2022/10/30 02:41:26;;;;;;;8.45;4.18;;;;;;;19.70;58.59;101652.19;5021279;28;20041;-64
2022/10/30 02:43:52;;;;;;;7.97;4.47;;;;;;;19.72;58.36;101652.09;5031596;28;20057;-65
2022/10/30 02:46:17;;;;;;;7.68;4.18;;;;;;;19.60;58.49;101634.50;5020929;28;20656;-65
2022/10/30 02:48:43;;;;;;;9.30;4.78;;;;;;;19.62;58.19;101644.00;5020875;28;20034;-64
2022/10/30 02:51:08;;;;;;;8.15;4.28;;;;;;;19.63;58.62;101642.19;5023001;28;20470;-65
2022/10/30 02:53:34;;;;;;;8.00;4.53;;;;;;;19.64;58.30;101641.25;5021179;28;20029;-65
2022/10/30 02:56:07;;;;;;;6.57;3.85;;;;;;;19.69;58.46;101645.25;5023643;28;20061;-65
2022/10/30 02:58:33;;;;;;;8.73;4.57;;;;;;;19.70;58.16;101652.19;5027518;28;20113;-64
2022/10/30 03:01:05;;;;;;;6.82;3.83;;;;;;;19.67;58.42;101655.06;5020979;28;20444;-64
2022/10/30 03:03:30;;;;;;;7.22;4.43;;;;;;;19.60;58.49;101632.72;5031654;28;20063;-65
2022/10/30 03:05:59;;;;;;;7.77;4.10;;;;;;;19.61;58.41;101628.25;5040994;28;20021;-64
2022/10/30 03:08:24;;;;;;;9.43;4.65;;;;;;;19.61;58.15;101633.53;5040609;28;20281;-65
2022/10/30 03:10:49;;;;;;;9.03;4.17;;;;;;;19.66;58.38;101636.69;5024272;28;20120;-65
2022/10/30 03:13:15;;;;;;;8.13;4.27;;;;;;;19.66;58.21;101628.75;5028970;28;20265;-64
2022/10/30 03:15:40;;;;;;;8.37;4.97;;;;;;;19.59;57.61;101625.72;5022930;28;20263;-65
2022/10/30 03:18:05;;;;;;;5.95;3.92;;;;;;;19.66;57.86;101641.97;5026900;28;20750;-64
2022/10/30 03:20:30;;;;;;;8.57;4.53;;;;;;;19.61;58.08;101626.44;5038649;28;20040;-65
2022/10/30 03:22:56;;;;;;;6.53;4.18;;;;;;;19.62;58.20;101624.66;5020640;28;20336;-65
2022/10/30 03:25:22;;;;;;;8.52;4.25;;;;;;;19.56;58.42;101621.50;5020633;28;20029;-65
2022/10/30 03:27:47;;;;;;;9.02;4.65;;;;;;;19.62;58.01;101628.13;5020513;28;20032;-65
2022/10/30 03:30:13;;;;;;;8.32;3.95;;;;;;;19.65;57.94;101643.78;5020298;28;20033;-65
2022/10/30 03:32:38;;;;;;;8.20;4.15;;;;;;;19.57;58.11;101625.00;5020702;28;20029;-64
2022/10/30 03:35:03;;;;;;;7.13;4.00;;;;;;;19.55;58.07;101625.13;5029047;28;20041;-65
2022/10/30 03:37:29;;;;;;;7.53;4.45;;;;;;;19.64;57.84;101639.44;5040998;28;20734;-64
2022/10/30 03:39:54;;;;;;;9.43;4.30;;;;;;;19.57;57.84;101631.13;5044088;28;20108;-64
2022/10/30 03:42:19;;;;;;;7.43;4.50;;;;;;;19.54;57.60;101620.78;5043834;28;20435;-63
2022/10/30 03:44:44;;;;;;;8.60;3.97;;;;;;;19.63;57.71;101636.91;5029894;28;20255;-65
2022/10/30 03:47:10;;;;;;;8.77;4.77;;;;;;;19.58;57.91;101637.25;5025964;28;20041;-64
2022/10/30 03:49:35;;;;;;;8.30;4.20;;;;;;;19.63;57.60;101652.78;5023667;28;20306;-64
2022/10/30 03:52:00;;;;;;;8.93;4.40;;;;;;;19.61;57.56;101657.34;5024131;28;20662;-64
2022/10/30 03:54:25;;;;;;;6.13;3.93;;;;;;;19.56;58.24;101649.75;5023840;28;20263;-64
2022/10/30 03:56:51;;;;;;;8.53;4.60;;;;;;;19.56;58.21;101641.81;5023746;28;20270;-64
2022/10/30 03:59:16;;;;;;;8.17;4.17;;;;;;;19.49;57.68;101638.78;5035642;28;20311;-64
2022/10/30 04:01:41;;;;;;;6.75;3.90;;;;;;;19.53;57.57;101645.53;5043736;28;20278;-64
2022/10/30 04:04:06;;;;;;;7.07;4.47;;;;;;;19.60;57.79;101650.34;5043292;28;20139;-64
2022/10/30 04:06:32;;;;;;;8.95;4.28;;;;;;;19.55;57.76;101650.69;5043462;28;20347;-63
2022/10/30 04:08:57;;;;;;;6.50;4.10;;;;;;;19.55;57.77;101651.56;5032760;28;20033;-63
2022/10/30 04:11:22;;;;;;;8.43;4.30;;;;;;;19.55;57.81;101658.63;5023632;28;20386;-65
2022/10/30 04:13:47;;;;;;;6.73;3.90;;;;;;;19.51;57.77;101652.72;5023527;28;20337;-65
2022/10/30 04:16:13;;;;;;;9.80;4.53;;;;;;;19.57;58.30;101659.38;5037579;28;20273;-64
2022/10/30 04:18:38;;;;;;;8.37;4.30;;;;;;;19.58;57.49;101659.25;5042667;28;20037;-64
2022/10/30 04:21:03;;;;;;;7.43;4.28;;;;;;;19.52;57.89;101645.66;5043233;28;20266;-64
2022/10/30 04:23:28;;;;;;;8.43;4.30;;;;;;;19.58;57.49;101647.81;5042773;28;20049;-64
2022/10/30 04:25:54;;;;;;;7.43;3.95;;;;;;;19.50;57.77;101636.97;5037485;28;20032;-65
2022/10/30 04:28:20;;;;;;;10.65;4.25;;;;;;;19.49;57.77;101641.44;5039774;28;20484;-64
2022/10/30 04:30:46;;;;;;;7.22;4.65;;;;;;;19.55;57.57;101651.56;5023545;28;20037;-65
2022/10/30 04:33:12;;;;;;;6.97;4.13;;;;;;;19.55;57.59;101648.06;5023285;28;20037;-64
2022/10/30 04:35:38;;;;;;;6.55;3.95;;;;;;;19.55;57.50;101653.34;5023065;28;20017;-65
2022/10/30 04:38:05;;;;;;;8.38;4.20;;;;;;;19.49;57.79;101644.09;5029059;28;20075;-65
2022/10/30 04:40:33;;;;;;;8.20;4.40;;;;;;;19.50;57.74;101640.50;5039541;28;20017;-64
2022/10/30 04:42:59;;;;;;;8.48;3.90;;;;;;;19.51;57.61;101633.41;5042692;28;20036;-64
2022/10/30 04:45:25;;;;;;;8.23;4.07;;;;;;;19.48;57.40;101630.97;5040524;28;20020;-65
2022/10/30 04:47:50;;;;;;;6.70;4.00;;;;;;;19.55;57.50;101626.91;5029472;28;20029;-65
2022/10/30 04:50:16;;;;;;;7.20;4.03;;;;;;;19.52;57.51;101617.41;5022628;28;20037;-64
2022/10/30 04:52:41;;;;;;;6.90;4.20;;;;;;;19.47;57.43;101605.50;5022638;28;20466;-64
2022/10/30 04:55:08;;;;;;;5.82;3.60;;;;;;;19.48;57.76;101602.72;5037693;28;20086;-64
2022/10/30 04:57:35;;;;;;;9.60;4.18;;;;;;;19.47;57.45;101592.28;5035274;28;20083;-64
2022/10/30 05:00:02;;;;;;;8.68;4.40;;;;;;;19.35;57.67;101586.94;5036883;28;20026;-64
2022/10/30 05:02:28;;;;;;;6.35;3.83;;;;;;;19.51;57.58;101618.38;5022933;28;20474;-64
2022/10/30 05:04:53;;;;;;;6.90;4.03;;;;;;;19.53;57.68;101616.44;5022605;28;20048;-64
2022/10/30 05:07:19;;;;;;;7.10;4.30;;;;;;;19.52;57.50;101611.28;5022589;28;20267;-64
2022/10/30 05:09:44;;;;;;;9.60;4.22;;;;;;;19.49;57.49;101609.72;5023117;28;20470;-64
2022/10/30 05:12:09;;;;;;;8.50;4.23;;;;;;;19.46;57.72;101609.09;5042312;28;20040;-65
2022/10/30 05:14:35;;;;;;;9.90;4.25;;;;;;;19.48;57.60;101609.81;5053110;28;20320;-64
2022/10/30 05:17:00;;;;;;;7.13;3.97;;;;;;;19.45;57.45;101605.59;5039103;28;20925;-64
2022/10/30 05:19:26;;;;;;;6.47;3.80;;;;;;;19.52;57.44;101620.06;5026666;28;20052;-63
2022/10/30 05:21:51;;;;;;;10.40;4.30;;;;;;;19.50;57.03;101614.06;5041696;28;20278;-63
2022/10/30 05:24:16;;;;;;;7.20;4.07;;;;;;;19.45;57.30;101616.19;5042453;28;21054;-64
2022/10/30 05:26:42;;;;;;;8.77;4.25;;;;;;;19.40;57.15;101605.13;5031387;28;20033;-64
2022/10/30 05:29:08;;;;;;;8.45;4.10;;;;;;;19.45;57.23;101610.06;5032623;28;20044;-63
2022/10/30 05:31:33;;;;;;;6.10;4.10;;;;;;;19.50;57.24;101621.13;5041806;28;20984;-64
2022/10/30 05:33:59;;;;;;;8.88;4.30;;;;;;;19.49;57.17;101638.78;5035759;28;20029;-64
2022/10/30 05:36:24;;;;;;;8.48;4.25;;;;;;;19.42;57.76;101632.25;5027667;28;20032;-65
2022/10/30 05:38:49;;;;;;;7.10;4.20;;;;;;;19.47;57.24;101637.22;5034624;28;20044;-65
2022/10/30 05:41:15;;;;;;;7.53;4.13;;;;;;;19.26;57.37;101586.78;5024974;28;20021;-64
2022/10/30 05:43:40;;;;;;;7.47;4.10;;;;;;;19.42;57.19;101618.22;5027436;28;20036;-65
2022/10/30 05:46:05;;;;;;;8.50;4.23;;;;;;;19.39;57.06;101622.78;5037552;28;20029;-64
2022/10/30 05:48:30;;;;;;;6.03;3.60;;;;;;;19.40;57.04;101621.81;5028817;28;20275;-64
2022/10/30 05:50:56;;;;;;;7.32;3.70;;;;;;;19.40;57.07;101624.44;5026459;28;20056;-65
2022/10/30 05:53:21;;;;;;;8.85;4.35;;;;;;;19.38;57.42;101615.78;5023232;28;20026;-64
2022/10/30 05:55:47;;;;;;;7.55;4.22;;;;;;;19.46;57.05;101627.63;5024974;28;20041;-64
2022/10/30 05:58:12;;;;;;;7.15;3.80;;;;;;;19.44;57.26;101616.28;5029962;28;20116;-64
2022/10/30 06:00:39;;;;;;;7.78;4.22;;;;;;;19.43;57.23;101622.56;5026920;28;20376;-64
2022/10/30 06:03:08;;;;;;;8.88;4.25;;;;;;;19.39;57.04;101620.13;5024360;28;20040;-64
2022/10/30 06:05:35;;;;;;;8.02;4.40;;;;;;;19.39;57.15;101621.91;5021501;28;20047;-64
2022/10/30 06:08:01;;;;;;;7.05;4.07;;;;;;;19.45;57.07;101628.56;5029133;28;20045;-64
2022/10/30 06:10:27;;;;;;;7.05;3.60;;;;;;;19.24;56.92;101594.84;5021158;28;20040;-65
2022/10/30 06:12:53;;;;;;;6.90;4.07;;;;;;;19.44;56.71;101635.66;5033257;28;20021;-66
2022/10/30 06:15:19;;;;;;;9.10;4.20;;;;;;;19.40;56.98;101628.91;5031765;28;20041;-65
2022/10/30 06:17:44;;;;;;;8.48;3.95;;;;;;;19.36;56.70;101624.81;5037518;28;20047;-64
2022/10/30 06:20:09;;;;;;;7.18;4.40;;;;;;;19.39;56.80;101628.06;5021298;28;20073;-64
2022/10/30 06:22:35;;;;;;;7.18;4.10;;;;;;;19.42;56.63;101626.16;5021346;28;20616;-64
2022/10/30 06:25:00;;;;;;;6.73;4.07;;;;;;;19.40;57.06;101619.16;5030075;28;20116;-65
2022/10/30 06:27:25;;;;;;;7.53;3.83;;;;;;;19.39;56.90;101628.06;5040881;28;20289;-65
2022/10/30 06:29:53;;;;;;;7.00;4.13;;;;;;;19.43;56.74;101633.13;5024121;28;20465;-65
2022/10/30 06:32:19;;;;;;;6.50;3.75;;;;;;;19.42;56.60;101621.69;5024654;28;20606;-65
2022/10/30 06:34:44;;;;;;;6.93;4.00;;;;;;;19.34;56.87;101605.56;5039236;28;20025;-64
2022/10/30 06:37:10;;;;;;;6.97;3.47;;;;;;;19.42;56.88;101632.25;5040626;28;20065;-64
2022/10/30 06:39:35;;;;;;;7.65;3.70;;;;;;;19.34;56.63;101611.72;5031517;28;20040;-64
2022/10/30 06:42:00;;;;;;;6.20;3.65;;;;;;;19.41;56.65;101625.31;5021218;28;20371;-64
2022/10/30 06:44:25;;;;;;;7.17;4.20;;;;;;;19.30;56.90;101610.25;5021132;28;20047;-63
2022/10/30 06:46:52;;;;;;;8.23;4.13;;;;;;;19.34;56.79;101618.78;5022196;28;20405;-65
2022/10/30 06:49:17;;;;;;;8.25;3.92;;;;;;;19.30;56.81;101610.25;5020847;28;20339;-64
2022/10/30 06:51:43;;;;;;;8.43;4.10;;;;;;;19.38;57.29;101625.53;5021276;28;20033;-63
2022/10/30 06:54:08;;;;;;;8.02;4.60;;;;;;;19.36;57.44;101614.25;5027175;28;20399;-64
2022/10/30 06:56:33;;;;;;;11.27;4.43;;;;;;;19.38;57.31;101604.41;5040565;28;20477;-64
2022/10/30 06:58:58;;;;;;;7.40;4.17;;;;;;;19.36;57.60;101599.22;5027926;28;20320;-64
2022/10/30 07:01:24;;;;;;;7.20;3.93;;;;;;;19.41;57.69;101601.53;5020737;28;20258;-64
2022/10/30 07:03:49;;;;;;;7.43;4.13;;;;;;;19.40;57.69;101594.53;5020872;28;20282;-64
2022/10/30 07:06:14;;;;;;;7.60;3.97;;;;;;;19.42;57.81;101597.06;5033207;28;20017;-64
2022/10/30 07:08:39;;;;;;;9.40;3.78;;;;;;;19.46;57.87;101599.38;5025274;28;20285;-66
2022/10/30 07:11:05;;;;;;;6.93;4.00;;;;;;;19.39;57.85;101595.47;5022808;28;20022;-63
2022/10/30 07:13:30;;;;;;;7.83;4.00;;;;;;;19.47;57.98;101614.28;5024702;28;20266;-67
2022/10/30 07:15:57;;;;;;;7.65;4.07;;;;;;;19.43;57.90;101598.75;5041728;28;20664;-66
2022/10/30 07:18:22;;;;;;;6.35;3.55;;;;;;;19.48;57.79;101607.19;5039365;28;20033;-64
2022/10/30 07:20:54;;;;;;;9.55;3.85;;;;;;;19.43;58.15;101598.75;5027845;28;20028;-65
2022/10/30 07:23:19;;;;;;;8.85;4.10;;;;;;;19.52;58.31;101608.66;5044259;28;20057;-64
2022/10/30 07:25:44;;;;;;;7.17;4.33;;;;;;;19.44;58.50;101593.38;5044066;28;20048;-64
2022/10/30 07:28:09;;;;;;;8.10;4.23;;;;;;;19.50;58.25;101606.13;5044150;28;20270;-64
2022/10/30 07:30:35;;;;;;;8.25;4.47;;;;;;;19.54;58.23;101606.72;5031893;28;20650;-66
2022/10/30 07:33:03;;;;;;;6.45;3.67;;;;;;;19.52;58.50;101608.66;5037001;28;20041;-65
2022/10/30 07:35:30;;;;;;;7.47;3.88;;;;;;;19.57;58.18;101611.78;5044170;28;20036;-67
2022/10/30 07:38:01;;;;;;;8.10;4.20;;;;;;;19.58;58.69;101619.59;5043888;28;20461;-67
2022/10/30 07:40:26;;;;;;;12.40;4.07;;;;;;;19.60;58.23;101624.78;5043923;28;20462;-70
2022/10/30 07:42:58;;;;;;;10.45;4.35;;;;;;;19.58;57.88;101616.97;5028995;28;20029;-66
2022/10/30 07:45:25;;;;;;;9.10;4.28;;;;;;;19.52;58.41;101601.56;5035307;28;20029;-70
2022/10/30 07:47:50;;;;;;;10.80;3.80;;;;;;;19.49;58.67;101598.31;5031251;28;20044;-74
2022/10/30 07:50:16;;;;;;;11.27;4.47;;;;;;;19.60;59.85;101608.91;5023092;28;20037;-73
2022/10/30 07:52:41;;;;;;;11.18;5.38;;;;;;;19.63;61.14;101600.75;5038500;28;20037;-74
2022/10/30 07:55:06;;;;;;;16.47;5.23;;;;;;;19.67;61.42;101593.41;5025822;28;20370;-73
2022/10/30 07:57:36;;;;;;;11.27;5.57;;;;;;;19.72;61.16;101607.97;5025649;28;20266;-66
2022/10/30 08:00:06;;;;;;;11.20;5.25;;;;;;;19.68;60.91;101609.16;5023161;28;20033;-66
2022/10/30 08:02:31;;;;;;;11.63;5.00;;;;;;;19.74;60.91;101599.91;5028254;28;20036;-67
2022/10/30 08:04:57;;;;;;;10.40;4.43;;;;;;;19.84;60.79;101611.53;5023446;28;20037;-66
2022/10/30 08:07:22;;;;;;;12.23;5.13;;;;;;;19.86;60.58;101609.59;5022782;28;20255;-68
2022/10/30 08:09:48;;;;;;;9.02;5.40;;;;;;;19.94;60.34;101603.72;5028697;28;21235;-78
2022/10/30 08:12:14;;;;;;;8.23;4.72;;;;;;;19.98;60.04;101599.03;5025036;28;20076;-76
2022/10/30 08:14:39;;;;;;;9.10;4.82;;;;;;;20.00;59.98;101595.31;5026906;28;20041;-77
2022/10/30 08:17:06;;;;;;;9.88;4.85;;;;;;;20.08;59.94;101598.19;5031789;28;20432;-76
2022/10/30 08:19:31;;;;;;;11.32;4.30;;;;;;;20.05;59.29;101587.84;5040454;28;20436;-74
2022/10/30 08:21:57;;;;;;;11.65;4.45;;;;;;;20.16;59.74;101602.06;5037988;28;20049;-75
2022/10/30 08:24:22;;;;;;;11.93;5.22;;;;;;;20.20;59.50;101603.50;5022201;28;20683;-77
2022/10/30 08:26:50;;;;;;;9.50;5.47;;;;;;;20.09;59.40;101585.78;5024358;28;20029;-76
2022/10/30 08:29:16;;;;;;;13.35;5.45;;;;;;;20.25;59.11;101611.91;5025710;28;20416;-75
2022/10/30 08:31:41;;;;;;;7.97;4.47;;;;;;;20.27;59.31;101618.78;5042484;28;20029;-66
2022/10/30 08:34:06;;;;;;;10.67;4.60;;;;;;;20.21;59.35;101616.59;5042237;28;20056;-68
2022/10/30 08:36:35;;;;;;;9.52;4.82;;;;;;;20.16;59.33;101615.28;5040975;28;20791;-79
2022/10/30 08:39:02;;;;;;;9.05;4.10;;;;;;;20.15;59.64;101600.38;5028141;28;20041;-79
2022/10/30 08:41:28;;;;;;;9.63;4.93;;;;;;;20.18;59.03;101592.19;5024990;28;20022;-76
2022/10/30 08:43:53;;;;;;;9.00;4.43;;;;;;;20.15;59.27;101598.56;5033949;28;20029;-70
2022/10/30 08:46:18;;;;;;;9.83;4.87;;;;;;;20.23;59.24;101604.09;5025053;28;20059;-72
2022/10/30 08:48:43;;;;;;;7.18;4.07;;;;;;;20.26;59.32;101608.31;5037750;28;20353;-72
2022/10/30 08:51:09;;;;;;;10.70;4.47;;;;;;;20.30;59.64;101609.75;5024357;28;20094;-67
2022/10/30 08:53:34;;;;;;;10.63;4.57;;;;;;;20.22;59.53;101609.50;5040802;28;20266;-68
2022/10/30 08:55:59;;;;;;;14.03;4.70;;;;;;;20.29;59.14;101614.19;5030677;28;20040;-71
2022/10/30 08:58:24;;;;;;;7.60;4.60;;;;;;;20.27;59.09;101613.47;5029773;28;20267;-73
2022/10/30 09:00:50;;;;;;;9.25;5.10;;;;;;;20.26;59.05;101605.66;5037988;28;20664;-72
2022/10/30 09:03:15;;;;;;;14.85;4.68;;;;;;;20.39;58.95;101616.13;5039085;28;20546;-70
2022/10/30 09:05:40;;;;;;;9.02;4.05;;;;;;;20.33;58.90;101601.59;5041419;28;20029;-72
2022/10/30 09:08:06;;;;;;;8.32;4.32;;;;;;;20.39;59.00;101600.25;5037210;28;20031;-76
2022/10/30 09:10:31;;;;;;;7.55;4.20;;;;;;;20.45;58.96;101605.06;5041178;28;20115;-73
2022/10/30 09:12:58;;;;;;;9.13;4.00;;;;;;;20.40;59.01;101592.19;5041933;28;20025;-76
2022/10/30 09:15:24;;;;;;;9.52;4.53;;;;;;;20.44;58.95;101590.13;5025368;28;20296;-71
2022/10/30 09:18:16;;;;;;;10.07;4.55;;;;;;;20.51;58.62;101593.97;5024521;28;20061;-72
2022/10/30 09:20:41;;;;;;;10.02;4.47;;;;;;;20.50;58.80;101583.50;5038430;28;20494;-78
2022/10/30 09:23:07;;;;;;;8.93;4.45;;;;;;;20.52;58.72;101589.50;5033020;28;20103;-72
2022/10/30 09:25:32;;;;;;;7.93;4.10;;;;;;;20.52;58.84;101593.03;5035380;28;20124;-72
2022/10/30 09:27:58;;;;;;;9.02;4.28;;;;;;;20.46;58.55;101583.75;5036469;28;20493;-72
2022/10/30 09:30:24;;;;;;;10.05;4.75;;;;;;;20.46;58.80;101586.41;5029626;28;20037;-73
2022/10/30 09:32:59;;;;;;;10.07;4.32;;;;;;;20.45;58.53;101581.22;5028545;28;20041;-68
2022/10/30 09:35:25;;;;;;;9.13;4.13;;;;;;;20.42;58.59;101581.47;5032070;28;20028;-68
2022/10/30 09:37:50;;;;;;;9.80;4.10;;;;;;;20.46;58.94;101596.16;5033564;28;20045;-67
2022/10/30 09:40:33;;;;;;;7.38;3.85;;;;;;;20.45;58.67;101600.59;5037339;28;20041;-68
2022/10/30 09:43:10;;;;;;;9.07;4.25;;;;;;;20.51;58.52;101599.28;5031271;28;20075;-75
2022/10/30 09:46:00;;;;;;;8.18;3.72;;;;;;;20.51;58.75;101601.09;5032808;28;20074;-76
2022/10/30 09:48:43;;;;;;;9.10;4.30;;;;;;;20.54;58.56;101617.56;5030325;28;20171;-76
2022/10/30 09:51:39;;;;;;;13.52;4.22;;;;;;;20.55;58.62;101621.88;5029132;28;20037;-67
2022/10/30 09:54:35;;;;;;;8.10;3.95;;;;;;;20.53;58.63;101633.56;5032330;28;20469;-68
2022/10/30 09:57:14;;;;;;;7.30;3.67;;;;;;;20.44;58.91;101636.00;5014106;28;20049;-68
2022/10/30 10:00:00;;;;;;;8.85;4.15;;;;;;;20.47;58.69;101626.94;5035235;28;20075;-68
2022/10/30 10:02:34;;;;;;;6.50;3.95;;;;;;;20.49;58.87;101627.69;5021264;28;20476;-68
2022/10/30 10:05:17;;;;;;;9.70;3.83;;;;;;;20.49;58.77;101632.97;5033969;28;20170;-69
2022/10/30 10:07:54;;;;;;;10.00;4.10;;;;;;;20.49;58.93;101630.34;5040556;28;20045;-75
2022/10/30 10:10:43;;;;;;;7.20;3.55;;;;;;;20.53;58.87;101620.34;5031183;28;20056;-76
2022/10/30 10:13:29;;;;;;;8.38;4.15;;;;;;;20.46;58.92;101604.94;5028539;28;20056;-68
2022/10/30 10:16:21;;;;;;;7.95;4.18;;;;;;;20.52;58.75;101616.84;5037154;28;20470;-75
2022/10/30 10:19:07;;;;;;;9.50;3.90;;;;;;;20.47;58.95;101609.28;5032630;28;20029;-73
2022/10/30 10:21:38;;;;;;;7.05;3.55;;;;;;;20.53;58.84;101610.56;5033684;28;20037;-75
2022/10/30 10:24:19;;;;;;;11.18;4.70;;;;;;;20.54;58.83;101608.78;5031680;28;20041;-73
2022/10/30 10:26:50;;;;;;;6.93;3.72;;;;;;;20.59;58.69;101614.56;5034161;28;20041;-73
2022/10/30 10:29:22;;;;;;;8.43;3.83;;;;;;;20.59;58.58;101601.31;5033684;28;20119;-65
2022/10/30 10:32:07;;;;;;;6.65;3.38;;;;;;;20.58;58.60;101605.75;5037054;28;20040;-65
2022/10/30 10:34:32;;;;;;;;;;;;;;;20.55;58.99;101608.63;5034913;28;20719;-65
2022/10/30 10:37:27;;;;;;;6.67;3.67;;;;;;;20.50;58.49;101599.41;5032184;28;19908;-65
2022/10/30 10:39:58;;;;;;;7.20;4.30;;;;;;;20.54;58.36;101604.31;5027452;28;20500;-66
2022/10/30 10:42:35;;;;;;;8.98;3.72;;;;;;;20.52;58.61;101595.69;5026770;28;20025;-67
2022/10/30 10:45:24;;;;;;;8.45;3.72;;;;;;;20.46;58.58;101588.22;5030783;28;20427;-67
2022/10/30 10:47:52;;;;;;;10.20;3.50;;;;;;;20.51;58.70;101601.91;5031807;28;20065;-65
2022/10/30 10:50:24;;;;;;;8.88;3.85;;;;;;;20.51;58.90;101601.91;5028244;28;20359;-71
2022/10/30 10:53:05;;;;;;;9.25;3.95;;;;;;;20.52;58.82;101606.25;5043260;28;20413;-72
2022/10/30 10:55:35;;;;;;;9.45;3.97;;;;;;;20.51;58.82;101599.28;5028729;28;21002;-70
2022/10/30 10:58:11;;;;;;;8.55;3.40;;;;;;;20.52;58.91;101611.56;5024458;28;20481;-73
2022/10/30 11:00:38;;;;;;;10.10;4.13;;;;;;;20.54;58.83;101614.91;5035622;28;20030;-65
2022/10/30 11:03:59;;;;;;;9.07;3.60;;;;;;;20.52;59.05;101608.91;5044154;28;20072;-67
2022/10/30 11:06:28;;;;;;;8.48;3.63;;;;;;;20.51;58.48;101593.16;5009450;28;20056;-74
2022/10/30 11:09:21;;;;;;;6.30;3.67;;;;;;;20.59;58.52;101591.56;5030792;28;20029;-75
2022/10/30 11:11:49;;;;;;;6.93;3.40;;;;;;;20.59;58.44;101583.63;5027965;28;20438;-73
2022/10/30 11:14:17;;;;;;;7.57;3.25;;;;;;;20.67;58.63;101592.78;5032047;28;20029;-75
2022/10/30 11:17:04;;;;;;;7.55;3.75;;;;;;;20.69;58.33;101588.19;5034809;28;20446;-76
2022/10/30 11:19:30;;;;;;;9.32;3.60;;;;;;;20.72;58.16;101585.31;5037054;28;20064;-76
2022/10/30 11:21:57;;;;;;;9.05;3.38;;;;;;;20.74;58.20;101578.06;5033357;28;20067;-76
2022/10/30 11:24:34;;;;;;;9.95;3.65;;;;;;;20.70;57.95;101566.91;5035797;28;20080;-72
2022/10/30 11:27:22;;;;;;;6.90;3.55;;;;;;;20.78;58.23;101579.53;5033132;28;20373;-72
2022/10/30 11:30:00;;;;;;;8.43;3.80;;;;;;;20.73;57.70;101568.44;5040381;28;20508;-75
2022/10/30 11:32:28;;;;;;;9.38;3.47;;;;;;;20.78;57.96;101585.66;5036834;28;20056;-78